createdAt,value
2023-01-11T00:00:27.479Z,100543.75
2023-01-11T00:03:31.498Z,100534.47
2023-01-11T00:06:34.186Z,100548.84
2023-01-11T00:09:37.237Z,100535.13
2023-01-11T00:12:39.876Z,100529.19
2023-01-11T00:15:43.756Z,100534.28
2023-01-11T00:18:46.413Z,100536.09
2023-01-11T00:21:49.620Z,100540.38
2023-01-11T00:24:52.196Z,100532.56
2023-01-11T00:27:55.226Z,100532.63
2023-01-11T00:30:58.029Z,100534.28
2023-01-11T00:34:00.929Z,100538.66
2023-01-11T00:37:04.512Z,100531.91
2023-01-11T00:40:08.276Z,100532.69
2023-01-11T00:43:29.434Z,100537.88
2023-01-11T00:46:50.884Z,100540.31
2023-01-11T00:49:53.430Z,100548.09
2023-01-11T00:52:58.132Z,100539.56
2023-01-11T00:56:00.710Z,100550.56
2023-01-11T00:59:04.793Z,100550.62
2023-01-11T01:02:08.144Z,100551.50
2023-01-11T01:05:11.191Z,100557.41
2023-01-11T01:08:13.882Z,100570.25
2023-01-11T01:11:16.847Z,100571.16
2023-01-11T01:14:29.797Z,100572.00
2023-01-11T01:17:32.618Z,100576.31
2023-01-11T01:20:35.356Z,100575.38
2023-01-11T01:23:38.276Z,100572.87
2023-01-11T01:26:40.970Z,100582.22
2023-01-11T01:29:44.482Z,100578.84
2023-01-11T01:32:47.095Z,100580.69
2023-01-11T01:35:50.781Z,100590.16
2023-01-11T01:38:53.376Z,100584.97
2023-01-11T01:41:57.126Z,100583.44
2023-01-11T01:44:59.690Z,100586.91
2023-01-11T01:48:05.925Z,100583.47
2023-01-11T01:51:13.298Z,100584.28
2023-01-11T01:54:22.703Z,100590.22
2023-01-11T01:57:30.267Z,100586.03
2023-01-11T02:00:33.346Z,100591.12
2023-01-11T02:03:36.234Z,100589.41
2023-01-11T02:06:40.132Z,100592.78
2023-01-11T02:09:56.990Z,100597.09
2023-01-11T02:13:06.247Z,100600.63
2023-01-11T02:16:08.954Z,100604.03
2023-01-11T02:19:37.389Z,100615.94
2023-01-11T02:23:11.192Z,100610.03
2023-01-11T02:27:00.725Z,100610.94
2023-01-11T02:30:32.753Z,100611.81
2023-01-11T02:33:56.621Z,100612.69
2023-01-11T02:37:17.892Z,100626.34
2023-01-11T02:40:37.657Z,100623.84
2023-01-11T02:44:14.124Z,100628.19
2023-01-11T02:47:23.921Z,100630.75
2023-01-11T02:50:47.126Z,100630.75
2023-01-11T02:53:55.549Z,100627.37
2023-01-11T02:57:01.310Z,100621.34
2023-01-11T03:00:04.947Z,100623.91
2023-01-11T03:03:17.061Z,100608.59
2023-01-11T03:06:26.024Z,100618.94
2023-01-11T03:09:40.399Z,100619.78
2023-01-11T03:13:03.832Z,100637.69
2023-01-11T03:16:13.243Z,100629.97
2023-01-11T03:19:37.429Z,100635.22
2023-01-11T03:23:06.402Z,100634.34
2023-01-11T03:26:41.586Z,100643.75
2023-01-11T03:29:50.238Z,100659.94
2023-01-11T03:32:57.101Z,100662.53
2023-01-11T03:36:09.753Z,100668.56
2023-01-11T03:39:19.348Z,100666.00
2023-01-11T03:42:24.659Z,100682.19
2023-01-11T03:45:30.789Z,100680.47
2023-01-11T03:48:52.009Z,100683.00
2023-01-11T03:51:59.090Z,100677.91
2023-01-11T03:55:05.808Z,100665.09
2023-01-11T03:58:09.441Z,100652.34
2023-01-11T04:01:13.217Z,100648.78
2023-01-11T04:04:16.275Z,100644.56
2023-01-11T04:07:21.495Z,100636.87
2023-01-11T04:10:24.403Z,100635.25
2023-01-11T04:13:27.179Z,100647.22
2023-01-11T04:16:30.202Z,100636.97
2023-01-11T04:19:34.001Z,100644.72
2023-01-11T04:22:36.981Z,100648.09
2023-01-11T04:25:39.529Z,100649.81
2023-01-11T04:28:43.654Z,100651.53
2023-01-11T04:31:46.231Z,100651.56
2023-01-11T04:34:50.559Z,100658.38
2023-01-11T04:37:57.258Z,100675.41
2023-01-11T04:41:18.741Z,100666.03
2023-01-11T04:44:21.846Z,100648.94
2023-01-11T04:47:25.185Z,100640.28
2023-01-11T04:50:28.391Z,100668.53
2023-01-11T04:53:31.289Z,100670.31
2023-01-11T04:56:34.112Z,100685.69
2023-01-11T04:59:37.580Z,100701.00
2023-01-11T05:02:40.678Z,100691.63
2023-01-11T05:05:43.532Z,100678.84
2023-01-11T05:08:47.349Z,100678.84
2023-01-11T05:11:50.539Z,100689.09
2023-01-11T05:14:53.358Z,100685.72
2023-01-11T05:17:56.189Z,100686.56
2023-01-11T05:20:58.804Z,100675.44
2023-01-11T05:24:04.489Z,100675.44
2023-01-11T05:27:07.108Z,100679.75
2023-01-11T05:30:10.680Z,100682.31
2023-01-11T05:33:15.638Z,100689.16
2023-01-11T05:36:21.426Z,100706.22
2023-01-11T05:39:24.246Z,100697.72
2023-01-11T05:42:27.041Z,100692.56
2023-01-11T05:45:29.718Z,100684.06
2023-01-11T05:48:32.628Z,100679.00
2023-01-11T05:51:35.965Z,100669.62
2023-01-11T05:54:38.842Z,100675.59
2023-01-11T05:57:42.739Z,100681.56
2023-01-11T06:00:49.050Z,100680.72
2023-01-11T06:03:52.479Z,100671.34
2023-01-11T06:06:55.137Z,100668.75
2023-01-11T06:09:58.028Z,100667.06
2023-01-11T06:13:18.933Z,100663.69
2023-01-11T06:16:22.377Z,100661.97
2023-01-11T06:19:25.279Z,100672.19
2023-01-11T06:22:28.133Z,100681.56
2023-01-11T06:25:30.681Z,100685.81
2023-01-11T06:28:33.591Z,100679.84
2023-01-11T06:31:36.160Z,100684.16
2023-01-11T06:34:39.134Z,100670.50
2023-01-11T06:37:41.757Z,100675.59
2023-01-11T06:40:55.652Z,100668.78
2023-01-11T06:43:58.307Z,100676.44
2023-01-11T06:47:01.177Z,100690.94
2023-01-11T06:50:04.618Z,100673.03
2023-01-11T06:53:07.741Z,100689.19
2023-01-11T06:56:13.381Z,100690.91
2023-01-11T06:59:16.265Z,100701.97
2023-01-11T07:02:19.346Z,100722.44
2023-01-11T07:05:22.378Z,100714.75
2023-01-11T07:08:26.384Z,100721.56
2023-01-11T07:11:31.659Z,100719.84
2023-01-11T07:14:34.298Z,100731.78
2023-01-11T07:17:37.301Z,100730.91
2023-01-11T07:20:40.306Z,100738.59
2023-01-11T07:23:43.250Z,100738.56
2023-01-11T07:26:45.917Z,100750.50
2023-01-11T07:29:48.710Z,100766.69
2023-01-11T07:32:51.234Z,100772.63
2023-01-11T07:35:54.973Z,100771.78
2023-01-11T07:38:57.571Z,100770.88
2023-01-11T07:42:19.035Z,100775.16
2023-01-11T07:45:21.991Z,100770.00
2023-01-11T07:48:26.629Z,100764.00
2023-01-11T07:51:29.615Z,100771.69
2023-01-11T07:54:32.816Z,100772.50
2023-01-11T07:57:35.384Z,100760.47
2023-01-11T08:00:40.716Z,100753.62
2023-01-11T08:03:44.099Z,100764.69
2023-01-11T08:06:46.839Z,100756.06
2023-01-11T08:09:49.685Z,100756.03
2023-01-11T08:13:11.050Z,100762.87
2023-01-11T08:16:13.969Z,100775.75
2023-01-11T08:19:16.957Z,100777.50
2023-01-11T08:22:19.963Z,100786.94
2023-01-11T08:25:23.691Z,100782.69
2023-01-11T08:28:26.985Z,100779.28
2023-01-11T08:31:30.407Z,100776.72
2023-01-11T08:34:34.872Z,100774.09
2023-01-11T08:37:37.754Z,100774.09
2023-01-11T08:40:40.897Z,100780.91
2023-01-11T08:43:43.761Z,100792.06
2023-01-11T08:46:46.898Z,100790.34
2023-01-11T08:49:49.896Z,100792.06
2023-01-11T08:52:52.793Z,100781.78
2023-01-11T08:55:55.660Z,100786.91
2023-01-11T08:58:58.551Z,100786.00
2023-01-11T09:02:02.527Z,100792.84
2023-01-11T09:05:08.647Z,100795.38
2023-01-11T09:08:11.799Z,100798.75
2023-01-11T09:11:33.552Z,100792.72
2023-01-11T09:14:36.213Z,100795.19
2023-01-11T09:17:39.283Z,100796.78
2023-01-11T09:20:41.974Z,100795.63
2023-01-11T09:23:45.343Z,100791.81
2023-01-11T09:26:48.436Z,100792.38
2023-01-11T09:29:51.745Z,100797.22
2023-01-11T09:32:55.228Z,100791.84
2023-01-11T09:36:00.889Z,100783.09
2023-01-11T09:39:08.409Z,100771.63
2023-01-11T09:42:31.484Z,100774.78
2023-01-11T09:45:35.501Z,100770.94
2023-01-11T09:48:46.003Z,100776.59
2023-01-11T09:51:50.831Z,100778.03
2023-01-11T09:54:53.802Z,100776.00
2023-01-11T09:58:00.628Z,100779.09
2023-01-11T10:01:16.592Z,100778.25
2023-01-11T10:04:37.249Z,100764.28
2023-01-11T10:18:41.723Z,100754.50
2023-01-11T10:22:23.874Z,100734.97
2023-01-11T10:25:42.845Z,100731.69
2023-01-11T10:29:14.631Z,100732.44
2023-01-11T10:32:54.060Z,100739.78
2023-01-11T10:36:32.973Z,100750.88
2023-01-11T10:40:14.652Z,100752.34
2023-01-11T10:43:22.446Z,100746.13
2023-01-11T10:46:27.202Z,100742.41
2023-01-11T10:49:38.950Z,100740.56
2023-01-11T10:52:52.036Z,100735.31
2023-01-11T10:56:12.982Z,100740.75
2023-01-11T10:59:22.099Z,100745.63
2023-01-11T11:02:56.863Z,100741.09
2023-01-11T11:06:27.136Z,100745.41
2023-01-11T11:10:00.861Z,100741.56
2023-01-11T11:13:13.695Z,100742.81
2023-01-11T11:16:22.603Z,100741.34
2023-01-11T11:19:32.275Z,100721.34
2023-01-11T11:22:35.155Z,100714.66
2023-01-11T11:25:48.531Z,100706.66
2023-01-11T11:29:22.836Z,100704.63
2023-01-11T11:32:43.085Z,100689.19
2023-01-11T11:35:56.721Z,100700.31
2023-01-11T11:39:09.297Z,100696.72
2023-01-11T11:42:17.378Z,100695.69
2023-01-11T11:45:20.300Z,100692.34
2023-01-11T11:48:28.127Z,100688.91
2023-01-11T11:51:31.720Z,100689.66
2023-01-11T11:54:36.081Z,100694.75
2023-01-11T11:57:41.669Z,100695.94
2023-01-11T12:00:47.475Z,100700.34
2023-01-11T12:03:54.436Z,100700.16
2023-01-11T12:07:15.074Z,100689.69
2023-01-11T12:10:26.747Z,100698.19
2023-01-11T12:13:40.494Z,100699.03
2023-01-11T12:16:44.869Z,100708.59
2023-01-11T12:19:48.026Z,100692.69
2023-01-11T12:23:08.687Z,100694.19
2023-01-11T12:26:13.625Z,100702.28
2023-01-11T12:29:47.772Z,100692.62
2023-01-11T12:33:20.649Z,100704.03
2023-01-11T12:36:45.397Z,100709.78
2023-01-11T12:40:15.866Z,100713.34
2023-01-11T12:44:06.414Z,100700.22
2023-01-11T12:47:43.021Z,100699.13
2023-01-11T12:50:51.664Z,100702.66
2023-01-11T12:54:09.549Z,100704.03
2023-01-11T12:57:32.916Z,100709.97
2023-01-11T13:00:57.204Z,100714.38
2023-01-11T13:04:23.252Z,100709.97
2023-01-11T13:07:42.333Z,100700.03
2023-01-11T13:11:06.809Z,100696.50
2023-01-11T13:14:46.405Z,100694.19
2023-01-11T13:18:25.544Z,100695.34
2023-01-11T13:21:44.268Z,100693.09
2023-01-11T13:24:50.609Z,100698.00
2023-01-11T13:27:55.604Z,100702.19
2023-01-11T13:31:01.724Z,100699.78
2023-01-11T13:34:25.390Z,100702.06
2023-01-11T13:37:43.090Z,100708.06
2023-01-11T13:40:55.504Z,100710.12
2023-01-11T13:44:25.941Z,100708.44
2023-01-11T13:47:38.213Z,100713.31
2023-01-11T13:50:58.717Z,100716.34
2023-01-11T13:54:08.450Z,100717.38
2023-01-11T13:57:22.072Z,100707.44
2023-01-11T14:00:33.361Z,100712.03
2023-01-11T14:03:52.693Z,100717.50
2023-01-11T14:07:23.908Z,100711.25
2023-01-11T14:10:43.675Z,100717.53
2023-01-11T14:14:16.543Z,100723.03
2023-01-11T14:17:38.411Z,100712.97
2023-01-11T14:20:59.177Z,100714.81
2023-01-11T14:24:04.424Z,100710.75
2023-01-11T14:27:20.785Z,100706.34
2023-01-11T14:30:50.134Z,100698.25
2023-01-11T14:34:07.892Z,100703.44
2023-01-11T14:37:19.476Z,100697.03
2023-01-11T14:40:40.919Z,100702.44
2023-01-11T14:43:43.702Z,100705.19
2023-01-11T14:46:52.398Z,100707.28
2023-01-11T14:50:05.032Z,100714.63
2023-01-11T14:53:20.324Z,100704.69
2023-01-11T14:56:52.432Z,100699.81
2023-01-11T14:59:55.041Z,100711.25
2023-01-11T15:03:00.998Z,100704.25
2023-01-11T15:06:13.515Z,100713.81
2023-01-11T15:09:43.667Z,100696.28
2023-01-11T15:12:46.241Z,100696.56
2023-01-11T15:16:08.393Z,100696.84
2023-01-11T15:19:25.230Z,100692.41
2023-01-11T15:22:30.944Z,100693.56
2023-01-11T15:25:35.520Z,100697.81
2023-01-11T15:29:04.781Z,100701.63
2023-01-11T15:32:19.366Z,100705.37
2023-01-11T15:35:33.031Z,100703.97
2023-01-11T15:38:59.902Z,100703.22
2023-01-11T15:42:14.867Z,100701.37
2023-01-11T15:46:07.156Z,100710.12
2023-01-11T15:49:35.204Z,100703.53
2023-01-11T15:53:03.883Z,100699.38
2023-01-11T15:56:26.506Z,100698.75
2023-01-11T15:59:44.855Z,100697.19
2023-01-11T16:02:47.681Z,100698.16
2023-01-11T16:05:59.985Z,100704.25
2023-01-11T16:09:30.226Z,100711.22
2023-01-11T16:13:00.236Z,100707.87
2023-01-11T16:16:18.005Z,100703.59
2023-01-11T16:19:41.376Z,100703.56
2023-01-11T16:23:00.477Z,100695.09
2023-01-11T16:26:04.974Z,100697.81
2023-01-11T16:29:14.402Z,100696.25
2023-01-11T16:32:32.822Z,100696.31
2023-01-11T16:35:35.581Z,100692.09
2023-01-11T16:38:50.603Z,100697.28
2023-01-11T16:41:58.727Z,100703.34
2023-01-11T16:45:04.054Z,100704.28
2023-01-11T16:48:12.650Z,100698.37
2023-01-11T16:51:19.396Z,100703.53
2023-01-11T16:54:28.854Z,100708.69
2023-01-11T16:57:37.275Z,100699.34
2023-01-11T17:00:40.116Z,100701.00
2023-01-11T17:03:54.838Z,100707.94
2023-01-11T17:07:11.801Z,100710.56
2023-01-11T17:10:28.088Z,100708.03
2023-01-11T17:13:53.003Z,100708.09
2023-01-11T17:17:00.043Z,100710.69
2023-01-11T17:20:03.144Z,100708.16
2023-01-11T17:23:06.753Z,100708.13
2023-01-11T17:26:24.588Z,100714.97
2023-01-11T17:29:40.604Z,100712.41
2023-01-11T17:32:46.064Z,100714.13
2023-01-11T17:35:49.239Z,100710.75
2023-01-11T17:38:54.311Z,100716.78
2023-01-11T17:42:21.351Z,100717.69
2023-01-11T17:45:25.365Z,100716.00
2023-01-11T17:48:32.507Z,100716.00
2023-01-11T17:51:35.383Z,100718.56
2023-01-11T17:54:38.393Z,100728.84
2023-01-11T17:57:41.095Z,100729.75
2023-01-11T18:00:47.423Z,100728.00
2023-01-11T18:03:57.152Z,100728.87
2023-01-11T18:07:19.105Z,100731.50
2023-01-11T18:10:25.749Z,100735.81
2023-01-11T18:13:33.959Z,100738.41
2023-01-11T18:16:36.829Z,100729.88
2023-01-11T18:19:44.495Z,100734.06
2023-01-11T18:22:53.665Z,100742.69
2023-01-11T18:26:27.045Z,100736.72
2023-01-11T18:29:35.975Z,100746.13
2023-01-11T18:32:43.561Z,100744.44
2023-01-11T18:35:49.005Z,100749.63
2023-01-11T18:38:51.840Z,100744.53
2023-01-11T18:42:07.451Z,100745.37
2023-01-11T18:45:11.137Z,100749.63
2023-01-11T18:48:15.387Z,100741.09
2023-01-11T18:51:33.195Z,100753.88
2023-01-11T18:54:36.311Z,100753.00
2023-01-11T18:57:39.664Z,100759.00
2023-01-11T19:00:43.093Z,100764.97
2023-01-11T19:03:46.395Z,100756.44
2023-01-11T19:06:52.180Z,100766.72
2023-01-11T19:09:55.070Z,100767.59
2023-01-11T19:12:58.557Z,100768.47
2023-01-11T19:16:01.789Z,100772.72
2023-01-11T19:19:05.011Z,100776.16
2023-01-11T19:22:07.943Z,100771.03
2023-01-11T19:25:11.730Z,100767.66
2023-01-11T19:28:14.475Z,100767.62
2023-01-11T19:31:17.784Z,100771.91
2023-01-11T19:34:20.717Z,100787.25
2023-01-11T19:37:25.206Z,100794.06
2023-01-11T19:40:27.814Z,100795.78
2023-01-11T19:43:31.063Z,100802.59
2023-01-11T19:46:33.992Z,100804.31
2023-01-11T19:49:37.869Z,100801.75
2023-01-11T19:52:41.012Z,100796.63
2023-01-11T19:55:44.017Z,100796.63
2023-01-11T19:58:46.678Z,100797.47
2023-01-11T20:01:49.973Z,100802.59
2023-01-11T20:04:53.280Z,100808.53
2023-01-11T20:07:55.809Z,100805.12
2023-01-11T20:11:11.760Z,100803.44
2023-01-11T20:14:15.414Z,100817.88
2023-01-11T20:17:21.044Z,100811.91
2023-01-11T20:20:25.330Z,100795.75
2023-01-11T20:23:32.568Z,100787.22
2023-01-11T20:26:35.251Z,100797.41
2023-01-11T20:29:38.243Z,100803.41
2023-01-11T20:32:42.473Z,100805.09
2023-01-11T20:35:45.934Z,100805.06
2023-01-11T20:38:50.447Z,100807.63
2023-01-11T20:41:54.135Z,100804.22
2023-01-11T20:44:56.933Z,100805.06
2023-01-11T20:48:00.118Z,100811.00
2023-01-11T20:51:03.627Z,100806.78
2023-01-11T20:54:07.421Z,100799.09
2023-01-11T20:57:12.737Z,100807.59
2023-01-11T21:00:16.008Z,100817.81
2023-01-11T21:03:20.136Z,100822.09
2023-01-11T21:06:23.028Z,100816.94
2023-01-11T21:09:25.614Z,100827.97
2023-01-11T21:12:28.607Z,100836.47
2023-01-11T21:15:31.242Z,100844.09
2023-01-11T21:18:34.560Z,100848.38
2023-01-11T21:21:37.138Z,100837.28
2023-01-11T21:24:41.098Z,100836.41
2023-01-11T21:27:43.691Z,100832.12
2023-01-11T21:30:46.674Z,100832.12
2023-01-11T21:33:50.105Z,100833.81
2023-01-11T21:36:53.008Z,100844.91
2023-01-11T21:39:55.627Z,100851.78
2023-01-11T21:42:59.288Z,100865.34
2023-01-11T21:46:03.661Z,100850.81
2023-01-11T21:49:07.026Z,100855.03
2023-01-11T21:52:10.486Z,100862.62
2023-01-11T21:55:14.045Z,100861.81
2023-01-11T21:58:17.442Z,100867.75
2023-01-11T22:01:21.796Z,100859.28
2023-01-11T22:04:24.835Z,100860.13
2023-01-11T22:07:31.837Z,100866.91
2023-01-11T22:10:35.245Z,100866.06
2023-01-11T22:13:37.893Z,100869.47
2023-01-11T22:16:40.933Z,100869.41
2023-01-11T22:19:43.894Z,100868.59
2023-01-11T22:22:46.892Z,100866.03
2023-01-11T22:25:49.580Z,100863.53
2023-01-11T22:29:12.626Z,100863.50
2023-01-11T22:32:15.245Z,100866.00
2023-01-11T22:35:18.091Z,100859.97
2023-01-11T22:38:20.928Z,100865.88
2023-01-11T22:41:25.918Z,100872.66
2023-01-11T22:44:28.575Z,100868.44
2023-01-11T22:47:31.482Z,100871.88
2023-01-11T22:50:34.024Z,100876.09
2023-01-11T22:53:42.562Z,100879.50
2023-01-11T22:56:45.120Z,100884.63
2023-01-11T22:59:48.360Z,100893.06
2023-01-11T23:02:50.914Z,100880.31
2023-01-11T23:05:53.905Z,100883.69
2023-01-11T23:08:58.695Z,100876.03
2023-01-11T23:12:20.327Z,100878.66
2023-01-11T23:15:22.996Z,100871.00
2023-01-11T23:18:25.969Z,100876.19
2023-01-11T23:21:28.749Z,100879.66
2023-01-11T23:24:31.796Z,100878.91
2023-01-11T23:27:34.394Z,100876.41
2023-01-11T23:30:37.342Z,100874.72
2023-01-11T23:33:39.962Z,100871.31
2023-01-11T23:36:43.447Z,100861.09
2023-01-11T23:39:46.138Z,100866.19
2023-01-11T23:42:49.227Z,100866.12
2023-01-11T23:46:11.777Z,100876.31
2023-01-11T23:49:14.865Z,100877.09
2023-01-11T23:52:19.225Z,100879.56
2023-01-11T23:55:22.378Z,100872.75
2023-01-11T23:58:25.174Z,100883.78
